sensor_id;sensor_type;location;lat;lon;timestamp;P1;durP1;ratioP1;P2;durP2;ratioP2
46551;SDS011;32278;51.810;4.712;2022-07-29T00:00:28;6.55;;;1.70;;
46551;SDS011;32278;51.810;4.712;2022-07-29T00:02:54;4.47;;;1.90;;
46551;SDS011;32278;51.810;4.712;2022-07-29T00:05:19;5.72;;;1.88;;
46551;SDS011;32278;51.810;4.712;2022-07-29T00:07:45;2.40;;;1.88;;
46551;SDS011;32278;51.810;4.712;2022-07-29T00:10:10;2.88;;;1.42;;
46551;SDS011;32278;51.810;4.712;2022-07-29T00:12:36;2.80;;;1.50;;
46551;SDS011;32278;51.810;4.712;2022-07-29T00:15:02;2.17;;;1.63;;
46551;SDS011;32278;51.810;4.712;2022-07-29T00:17:28;1.98;;;1.10;;
46551;SDS011;32278;51.810;4.712;2022-07-29T00:19:54;2.08;;;1.60;;
46551;SDS011;32278;51.810;4.712;2022-07-29T00:22:20;3.65;;;1.50;;
46551;SDS011;32278;51.810;4.712;2022-07-29T00:24:46;7.07;;;1.60;;
46551;SDS011;32278;51.810;4.712;2022-07-29T00:27:13;3.90;;;1.65;;
46551;SDS011;32278;51.810;4.712;2022-07-29T00:29:39;8.55;;;1.92;;
46551;SDS011;32278;51.810;4.712;2022-07-29T00:32:04;4.60;;;2.03;;
46551;SDS011;32278;51.810;4.712;2022-07-29T00:34:30;5.93;;;1.38;;
46551;SDS011;32278;51.810;4.712;2022-07-29T00:37:15;3.65;;;1.58;;
46551;SDS011;32278;51.810;4.712;2022-07-29T00:39:40;3.17;;;1.77;;
46551;SDS011;32278;51.810;4.712;2022-07-29T00:42:06;11.65;;;2.17;;
46551;SDS011;32278;51.810;4.712;2022-07-29T00:44:36;4.40;;;1.85;;
46551;SDS011;32278;51.810;4.712;2022-07-29T00:47:03;5.60;;;1.65;;
46551;SDS011;32278;51.810;4.712;2022-07-29T00:49:29;3.10;;;1.52;;
46551;SDS011;32278;51.810;4.712;2022-07-29T00:51:55;4.57;;;2.83;;
46551;SDS011;32278;51.810;4.712;2022-07-29T00:54:20;5.05;;;1.80;;
46551;SDS011;32278;51.810;4.712;2022-07-29T00:56:46;9.27;;;2.30;;
46551;SDS011;32278;51.810;4.712;2022-07-29T00:59:11;2.67;;;1.88;;
46551;SDS011;32278;51.810;4.712;2022-07-29T01:01:37;9.05;;;2.40;;
46551;SDS011;32278;51.810;4.712;2022-07-29T01:04:02;7.88;;;2.03;;
46551;SDS011;32278;51.810;4.712;2022-07-29T01:06:30;4.85;;;2.00;;
46551;SDS011;32278;51.810;4.712;2022-07-29T01:08:55;3.88;;;2.38;;
46551;SDS011;32278;51.810;4.712;2022-07-29T01:11:21;4.25;;;1.50;;
46551;SDS011;32278;51.810;4.712;2022-07-29T01:13:47;4.05;;;1.70;;
46551;SDS011;32278;51.810;4.712;2022-07-29T01:16:15;2.00;;;1.67;;
46551;SDS011;32278;51.810;4.712;2022-07-29T01:18:47;3.88;;;2.00;;
46551;SDS011;32278;51.810;4.712;2022-07-29T01:29:36;10.40;;;2.28;;
46551;SDS011;32278;51.810;4.712;2022-07-29T01:37:08;5.88;;;1.67;;
46551;SDS011;32278;51.810;4.712;2022-07-29T01:39:45;5.78;;;2.42;;
46551;SDS011;32278;51.810;4.712;2022-07-29T01:44:40;6.20;;;1.75;;
46551;SDS011;32278;51.810;4.712;2022-07-29T01:47:15;3.78;;;1.90;;
46551;SDS011;32278;51.810;4.712;2022-07-29T01:52:23;5.65;;;1.80;;
46551;SDS011;32278;51.810;4.712;2022-07-29T01:54:57;5.68;;;2.08;;
46551;SDS011;32278;51.810;4.712;2022-07-29T01:57:28;3.60;;;2.03;;
46551;SDS011;32278;51.810;4.712;2022-07-29T01:59:56;5.97;;;2.10;;
46551;SDS011;32278;51.810;4.712;2022-07-29T02:02:23;5.18;;;2.08;;
46551;SDS011;32278;51.810;4.712;2022-07-29T02:04:49;8.82;;;2.28;;
46551;SDS011;32278;51.810;4.712;2022-07-29T02:07:18;2.53;;;1.85;;
46551;SDS011;32278;51.810;4.712;2022-07-29T02:09:47;4.20;;;2.50;;
46551;SDS011;32278;51.810;4.712;2022-07-29T02:12:15;4.60;;;1.92;;
46551;SDS011;32278;51.810;4.712;2022-07-29T02:14:47;3.42;;;2.08;;
46551;SDS011;32278;51.810;4.712;2022-07-29T02:17:18;3.20;;;1.95;;
46551;SDS011;32278;51.810;4.712;2022-07-29T02:19:48;4.75;;;2.20;;
46551;SDS011;32278;51.810;4.712;2022-07-29T02:22:15;4.90;;;2.15;;
46551;SDS011;32278;51.810;4.712;2022-07-29T02:24:43;5.50;;;1.85;;
46551;SDS011;32278;51.810;4.712;2022-07-29T02:27:09;3.95;;;2.10;;
46551;SDS011;32278;51.810;4.712;2022-07-29T02:29:37;3.13;;;1.95;;
46551;SDS011;32278;51.810;4.712;2022-07-29T02:32:04;6.10;;;2.08;;
46551;SDS011;32278;51.810;4.712;2022-07-29T02:34:31;2.90;;;1.90;;
46551;SDS011;32278;51.810;4.712;2022-07-29T02:36:59;5.05;;;2.28;;
46551;SDS011;32278;51.810;4.712;2022-07-29T02:39:25;5.85;;;2.30;;
46551;SDS011;32278;51.810;4.712;2022-07-29T02:41:54;6.13;;;2.10;;
46551;SDS011;32278;51.810;4.712;2022-07-29T02:44:26;6.93;;;2.05;;
46551;SDS011;32278;51.810;4.712;2022-07-29T02:46:53;5.07;;;2.70;;
46551;SDS011;32278;51.810;4.712;2022-07-29T02:49:36;4.22;;;2.47;;
46551;SDS011;32278;51.810;4.712;2022-07-29T02:52:25;4.40;;;2.33;;
46551;SDS011;32278;51.810;4.712;2022-07-29T02:54:55;6.72;;;2.10;;
46551;SDS011;32278;51.810;4.712;2022-07-29T03:00:01;3.67;;;2.60;;
46551;SDS011;32278;51.810;4.712;2022-07-29T03:02:32;3.67;;;2.25;;
46551;SDS011;32278;51.810;4.712;2022-07-29T03:05:14;8.07;;;2.35;;
46551;SDS011;32278;51.810;4.712;2022-07-29T03:07:43;4.70;;;2.28;;
46551;SDS011;32278;51.810;4.712;2022-07-29T03:10:12;4.20;;;1.88;;
46551;SDS011;32278;51.810;4.712;2022-07-29T03:12:38;5.15;;;2.05;;
46551;SDS011;32278;51.810;4.712;2022-07-29T03:15:05;4.63;;;2.08;;
46551;SDS011;32278;51.810;4.712;2022-07-29T03:17:31;5.40;;;2.25;;
46551;SDS011;32278;51.810;4.712;2022-07-29T03:19:58;3.22;;;1.73;;
46551;SDS011;32278;51.810;4.712;2022-07-29T03:22:24;5.72;;;2.13;;
46551;SDS011;32278;51.810;4.712;2022-07-29T03:24:50;2.28;;;1.80;;
46551;SDS011;32278;51.810;4.712;2022-07-29T03:27:15;2.55;;;2.03;;
46551;SDS011;32278;51.810;4.712;2022-07-29T03:29:41;3.90;;;2.08;;
46551;SDS011;32278;51.810;4.712;2022-07-29T03:32:07;3.92;;;1.85;;
46551;SDS011;32278;51.810;4.712;2022-07-29T03:34:32;9.40;;;2.03;;
46551;SDS011;32278;51.810;4.712;2022-07-29T03:36:58;4.75;;;2.33;;
46551;SDS011;32278;51.810;4.712;2022-07-29T03:39:24;4.13;;;2.30;;
46551;SDS011;32278;51.810;4.712;2022-07-29T03:41:53;6.50;;;2.38;;
46551;SDS011;32278;51.810;4.712;2022-07-29T03:44:21;6.40;;;2.28;;
46551;SDS011;32278;51.810;4.712;2022-07-29T03:46:48;5.13;;;2.20;;
46551;SDS011;32278;51.810;4.712;2022-07-29T03:49:17;5.00;;;2.50;;
46551;SDS011;32278;51.810;4.712;2022-07-29T03:51:44;5.28;;;2.35;;
46551;SDS011;32278;51.810;4.712;2022-07-29T03:54:10;5.38;;;2.15;;
46551;SDS011;32278;51.810;4.712;2022-07-29T03:56:38;4.90;;;2.28;;
46551;SDS011;32278;51.810;4.712;2022-07-29T03:59:07;5.80;;;2.53;;
46551;SDS011;32278;51.810;4.712;2022-07-29T04:01:34;6.28;;;2.30;;
46551;SDS011;32278;51.810;4.712;2022-07-29T04:04:01;5.70;;;2.28;;
46551;SDS011;32278;51.810;4.712;2022-07-29T04:06:26;2.78;;;2.05;;
46551;SDS011;32278;51.810;4.712;2022-07-29T04:08:52;5.75;;;2.50;;
46551;SDS011;32278;51.810;4.712;2022-07-29T04:11:17;4.65;;;2.55;;
46551;SDS011;32278;51.810;4.712;2022-07-29T04:13:43;4.90;;;2.50;;
46551;SDS011;32278;51.810;4.712;2022-07-29T04:16:09;5.32;;;2.75;;
46551;SDS011;32278;51.810;4.712;2022-07-29T04:18:34;6.82;;;2.58;;
46551;SDS011;32278;51.810;4.712;2022-07-29T04:21:00;6.57;;;1.92;;
46551;SDS011;32278;51.810;4.712;2022-07-29T04:23:26;5.55;;;2.75;;
46551;SDS011;32278;51.810;4.712;2022-07-29T04:25:52;11.75;;;2.75;;
46551;SDS011;32278;51.810;4.712;2022-07-29T04:28:18;5.70;;;2.50;;
46551;SDS011;32278;51.810;4.712;2022-07-29T04:30:44;6.32;;;2.70;;
46551;SDS011;32278;51.810;4.712;2022-07-29T04:33:09;8.90;;;2.97;;
46551;SDS011;32278;51.810;4.712;2022-07-29T04:35:36;5.55;;;2.78;;
46551;SDS011;32278;51.810;4.712;2022-07-29T04:38:03;9.25;;;3.05;;
46551;SDS011;32278;51.810;4.712;2022-07-29T04:40:30;8.93;;;3.33;;
46551;SDS011;32278;51.810;4.712;2022-07-29T04:42:55;7.40;;;3.08;;
46551;SDS011;32278;51.810;4.712;2022-07-29T04:45:21;8.32;;;2.67;;
46551;SDS011;32278;51.810;4.712;2022-07-29T04:47:47;8.52;;;3.17;;
46551;SDS011;32278;51.810;4.712;2022-07-29T04:50:12;7.35;;;3.35;;
46551;SDS011;32278;51.810;4.712;2022-07-29T04:52:38;5.70;;;2.83;;
46551;SDS011;32278;51.810;4.712;2022-07-29T04:55:04;5.95;;;3.20;;
46551;SDS011;32278;51.810;4.712;2022-07-29T04:57:30;7.68;;;3.75;;
46551;SDS011;32278;51.810;4.712;2022-07-29T04:59:55;8.82;;;3.15;;
46551;SDS011;32278;51.810;4.712;2022-07-29T05:02:21;9.43;;;3.13;;
46551;SDS011;32278;51.810;4.712;2022-07-29T05:04:47;10.82;;;4.10;;
46551;SDS011;32278;51.810;4.712;2022-07-29T05:07:13;17.42;;;3.88;;
46551;SDS011;32278;51.810;4.712;2022-07-29T05:09:39;11.35;;;3.88;;
46551;SDS011;32278;51.810;4.712;2022-07-29T05:12:04;7.63;;;3.50;;
46551;SDS011;32278;51.810;4.712;2022-07-29T05:14:30;5.80;;;3.13;;
46551;SDS011;32278;51.810;4.712;2022-07-29T05:16:56;8.10;;;3.05;;
46551;SDS011;32278;51.810;4.712;2022-07-29T05:19:22;6.38;;;2.53;;
46551;SDS011;32278;51.810;4.712;2022-07-29T05:21:48;9.02;;;3.30;;
46551;SDS011;32278;51.810;4.712;2022-07-29T05:24:13;5.78;;;3.17;;
46551;SDS011;32278;51.810;4.712;2022-07-29T05:26:39;5.82;;;3.05;;
46551;SDS011;32278;51.810;4.712;2022-07-29T05:29:05;5.07;;;2.70;;
46551;SDS011;32278;51.810;4.712;2022-07-29T05:31:31;7.85;;;3.17;;
46551;SDS011;32278;51.810;4.712;2022-07-29T05:33:56;11.07;;;3.28;;
46551;SDS011;32278;51.810;4.712;2022-07-29T05:36:22;7.55;;;3.15;;
46551;SDS011;32278;51.810;4.712;2022-07-29T05:38:47;4.78;;;2.58;;
46551;SDS011;32278;51.810;4.712;2022-07-29T05:41:13;8.50;;;3.22;;
46551;SDS011;32278;51.810;4.712;2022-07-29T05:43:38;5.85;;;2.83;;
46551;SDS011;32278;51.810;4.712;2022-07-29T05:46:04;7.68;;;3.55;;
46551;SDS011;32278;51.810;4.712;2022-07-29T05:48:29;10.13;;;3.30;;
46551;SDS011;32278;51.810;4.712;2022-07-29T05:50:55;7.95;;;3.63;;
46551;SDS011;32278;51.810;4.712;2022-07-29T05:53:20;8.98;;;3.35;;
46551;SDS011;32278;51.810;4.712;2022-07-29T05:55:49;9.63;;;3.15;;
46551;SDS011;32278;51.810;4.712;2022-07-29T05:58:15;5.90;;;3.20;;
46551;SDS011;32278;51.810;4.712;2022-07-29T06:00:41;5.35;;;2.97;;
46551;SDS011;32278;51.810;4.712;2022-07-29T06:03:07;5.15;;;3.20;;
46551;SDS011;32278;51.810;4.712;2022-07-29T06:05:32;9.93;;;3.63;;
46551;SDS011;32278;51.810;4.712;2022-07-29T06:07:58;9.65;;;3.03;;
46551;SDS011;32278;51.810;4.712;2022-07-29T06:10:23;6.72;;;3.40;;
46551;SDS011;32278;51.810;4.712;2022-07-29T06:12:49;9.20;;;3.17;;
46551;SDS011;32278;51.810;4.712;2022-07-29T06:15:15;6.30;;;3.30;;
46551;SDS011;32278;51.810;4.712;2022-07-29T06:17:40;7.97;;;3.17;;
46551;SDS011;32278;51.810;4.712;2022-07-29T06:20:06;7.30;;;3.05;;
46551;SDS011;32278;51.810;4.712;2022-07-29T06:22:32;9.05;;;3.20;;
46551;SDS011;32278;51.810;4.712;2022-07-29T06:24:57;5.72;;;3.40;;
46551;SDS011;32278;51.810;4.712;2022-07-29T06:27:23;7.82;;;3.15;;
46551;SDS011;32278;51.810;4.712;2022-07-29T06:29:48;8.48;;;3.25;;
46551;SDS011;32278;51.810;4.712;2022-07-29T06:32:14;6.80;;;2.70;;
46551;SDS011;32278;51.810;4.712;2022-07-29T06:34:39;5.00;;;3.25;;
46551;SDS011;32278;51.810;4.712;2022-07-29T06:37:08;5.18;;;3.08;;
46551;SDS011;32278;51.810;4.712;2022-07-29T06:39:37;8.15;;;2.83;;
46551;SDS011;32278;51.810;4.712;2022-07-29T06:42:06;5.68;;;2.72;;
46551;SDS011;32278;51.810;4.712;2022-07-29T06:44:31;6.78;;;2.65;;
46551;SDS011;32278;51.810;4.712;2022-07-29T06:47:00;12.18;;;3.30;;
46551;SDS011;32278;51.810;4.712;2022-07-29T06:49:26;5.70;;;3.20;;
46551;SDS011;32278;51.810;4.712;2022-07-29T06:51:52;6.95;;;2.92;;
46551;SDS011;32278;51.810;4.712;2022-07-29T06:54:18;7.88;;;3.25;;
46551;SDS011;32278;51.810;4.712;2022-07-29T06:56:44;4.82;;;2.65;;
46551;SDS011;32278;51.810;4.712;2022-07-29T06:59:11;8.32;;;3.10;;
46551;SDS011;32278;51.810;4.712;2022-07-29T07:01:38;5.45;;;2.80;;
46551;SDS011;32278;51.810;4.712;2022-07-29T07:04:05;3.63;;;2.80;;
46551;SDS011;32278;51.810;4.712;2022-07-29T07:06:33;6.72;;;2.65;;
46551;SDS011;32278;51.810;4.712;2022-07-29T07:08:59;6.85;;;3.15;;
46551;SDS011;32278;51.810;4.712;2022-07-29T07:11:24;8.57;;;3.20;;
46551;SDS011;32278;51.810;4.712;2022-07-29T07:13:50;7.55;;;3.55;;
46551;SDS011;32278;51.810;4.712;2022-07-29T07:16:15;7.75;;;3.13;;
46551;SDS011;32278;51.810;4.712;2022-07-29T07:18:41;9.00;;;2.83;;
46551;SDS011;32278;51.810;4.712;2022-07-29T07:21:07;7.40;;;3.03;;
46551;SDS011;32278;51.810;4.712;2022-07-29T07:23:32;10.43;;;3.88;;
46551;SDS011;32278;51.810;4.712;2022-07-29T07:25:58;7.63;;;2.78;;
46551;SDS011;32278;51.810;4.712;2022-07-29T07:28:23;6.20;;;3.10;;
46551;SDS011;32278;51.810;4.712;2022-07-29T07:30:49;6.93;;;2.58;;
46551;SDS011;32278;51.810;4.712;2022-07-29T07:33:14;5.93;;;2.70;;
46551;SDS011;32278;51.810;4.712;2022-07-29T07:35:40;8.80;;;3.28;;
46551;SDS011;32278;51.810;4.712;2022-07-29T07:38:06;7.82;;;3.38;;
46551;SDS011;32278;51.810;4.712;2022-07-29T07:40:32;7.55;;;3.28;;
46551;SDS011;32278;51.810;4.712;2022-07-29T07:42:57;6.32;;;3.65;;
46551;SDS011;32278;51.810;4.712;2022-07-29T07:45:23;5.63;;;3.28;;
46551;SDS011;32278;51.810;4.712;2022-07-29T07:47:49;5.93;;;3.35;;
46551;SDS011;32278;51.810;4.712;2022-07-29T07:50:15;7.20;;;3.50;;
46551;SDS011;32278;51.810;4.712;2022-07-29T07:52:52;4.65;;;3.00;;
46551;SDS011;32278;51.810;4.712;2022-07-29T07:55:22;5.10;;;4.15;;
46551;SDS011;32278;51.810;4.712;2022-07-29T07:57:48;4.65;;;3.33;;
46551;SDS011;32278;51.810;4.712;2022-07-29T08:00:14;6.22;;;3.83;;
46551;SDS011;32278;51.810;4.712;2022-07-29T08:02:40;6.82;;;3.85;;
46551;SDS011;32278;51.810;4.712;2022-07-29T08:05:07;6.55;;;3.33;;
46551;SDS011;32278;51.810;4.712;2022-07-29T08:07:33;12.00;;;3.60;;
46551;SDS011;32278;51.810;4.712;2022-07-29T08:09:59;7.95;;;3.58;;
46551;SDS011;32278;51.810;4.712;2022-07-29T08:12:24;6.18;;;3.35;;
46551;SDS011;32278;51.810;4.712;2022-07-29T08:14:50;9.15;;;4.03;;
46551;SDS011;32278;51.810;4.712;2022-07-29T08:17:15;6.68;;;3.65;;
46551;SDS011;32278;51.810;4.712;2022-07-29T08:19:41;7.88;;;3.08;;
46551;SDS011;32278;51.810;4.712;2022-07-29T08:22:06;8.48;;;3.65;;
46551;SDS011;32278;51.810;4.712;2022-07-29T08:24:32;7.32;;;3.63;;
46551;SDS011;32278;51.810;4.712;2022-07-29T08:27:17;10.13;;;3.70;;
46551;SDS011;32278;51.810;4.712;2022-07-29T08:29:45;6.88;;;3.10;;
46551;SDS011;32278;51.810;4.712;2022-07-29T08:32:10;6.53;;;3.85;;
46551;SDS011;32278;51.810;4.712;2022-07-29T08:34:36;7.25;;;3.35;;
46551;SDS011;32278;51.810;4.712;2022-07-29T08:37:01;5.05;;;3.00;;
46551;SDS011;32278;51.810;4.712;2022-07-29T08:39:27;5.03;;;2.90;;
46551;SDS011;32278;51.810;4.712;2022-07-29T08:41:53;5.93;;;3.58;;
46551;SDS011;32278;51.810;4.712;2022-07-29T08:44:19;6.97;;;3.58;;
46551;SDS011;32278;51.810;4.712;2022-07-29T08:46:46;9.00;;;3.10;;
46551;SDS011;32278;51.810;4.712;2022-07-29T08:49:13;6.43;;;3.47;;
46551;SDS011;32278;51.810;4.712;2022-07-29T08:51:39;7.05;;;3.05;;
46551;SDS011;32278;51.810;4.712;2022-07-29T08:54:05;9.88;;;3.75;;
46551;SDS011;32278;51.810;4.712;2022-07-29T08:56:32;7.45;;;3.78;;
46551;SDS011;32278;51.810;4.712;2022-07-29T08:58:59;8.27;;;3.55;;
46551;SDS011;32278;51.810;4.712;2022-07-29T09:01:28;5.32;;;3.20;;
46551;SDS011;32278;51.810;4.712;2022-07-29T09:03:56;6.60;;;3.47;;
46551;SDS011;32278;51.810;4.712;2022-07-29T09:06:28;7.20;;;3.05;;
46551;SDS011;32278;51.810;4.712;2022-07-29T09:08:58;5.63;;;3.25;;
46551;SDS011;32278;51.810;4.712;2022-07-29T09:11:24;9.18;;;3.50;;
46551;SDS011;32278;51.810;4.712;2022-07-29T09:13:50;5.50;;;3.17;;
46551;SDS011;32278;51.810;4.712;2022-07-29T09:16:16;8.93;;;3.28;;
46551;SDS011;32278;51.810;4.712;2022-07-29T09:18:43;8.55;;;2.90;;
46551;SDS011;32278;51.810;4.712;2022-07-29T09:21:11;6.53;;;3.10;;
46551;SDS011;32278;51.810;4.712;2022-07-29T09:24:00;7.80;;;4.10;;
46551;SDS011;32278;51.810;4.712;2022-07-29T09:26:33;8.55;;;3.88;;
46551;SDS011;32278;51.810;4.712;2022-07-29T09:29:10;9.30;;;3.72;;
46551;SDS011;32278;51.810;4.712;2022-07-29T09:31:41;13.35;;;3.55;;
46551;SDS011;32278;51.810;4.712;2022-07-29T09:34:08;9.93;;;3.60;;
46551;SDS011;32278;51.810;4.712;2022-07-29T09:36:40;6.88;;;2.72;;
46551;SDS011;32278;51.810;4.712;2022-07-29T09:39:07;6.15;;;3.28;;
46551;SDS011;32278;51.810;4.712;2022-07-29T09:44:10;9.50;;;3.97;;
46551;SDS011;32278;51.810;4.712;2022-07-29T09:46:36;3.88;;;2.85;;
46551;SDS011;32278;51.810;4.712;2022-07-29T09:49:12;7.90;;;3.03;;
46551;SDS011;32278;51.810;4.712;2022-07-29T09:51:38;8.15;;;2.72;;
46551;SDS011;32278;51.810;4.712;2022-07-29T09:54:23;6.18;;;2.70;;
46551;SDS011;32278;51.810;4.712;2022-07-29T09:56:51;6.38;;;2.67;;
46551;SDS011;32278;51.810;4.712;2022-07-29T09:59:17;7.57;;;2.88;;
46551;SDS011;32278;51.810;4.712;2022-07-29T10:01:45;6.03;;;2.50;;
46551;SDS011;32278;51.810;4.712;2022-07-29T10:04:11;7.63;;;2.42;;
46551;SDS011;32278;51.810;4.712;2022-07-29T10:06:54;5.18;;;2.42;;
46551;SDS011;32278;51.810;4.712;2022-07-29T10:09:21;6.43;;;2.97;;
46551;SDS011;32278;51.810;4.712;2022-07-29T10:12:02;7.03;;;2.55;;
46551;SDS011;32278;51.810;4.712;2022-07-29T10:14:31;7.03;;;2.30;;
46551;SDS011;32278;51.810;4.712;2022-07-29T10:17:02;7.40;;;2.60;;
46551;SDS011;32278;51.810;4.712;2022-07-29T10:19:29;5.88;;;3.25;;
46551;SDS011;32278;51.810;4.712;2022-07-29T10:21:57;5.85;;;2.50;;
46551;SDS011;32278;51.810;4.712;2022-07-29T10:24:24;7.50;;;2.75;;
46551;SDS011;32278;51.810;4.712;2022-07-29T10:26:52;4.57;;;2.75;;
46551;SDS011;32278;51.810;4.712;2022-07-29T10:29:19;6.53;;;2.90;;
46551;SDS011;32278;51.810;4.712;2022-07-29T10:34:24;5.93;;;2.92;;
46551;SDS011;32278;51.810;4.712;2022-07-29T10:37:03;8.98;;;2.90;;
46551;SDS011;32278;51.810;4.712;2022-07-29T10:39:41;6.97;;;2.45;;
46551;SDS011;32278;51.810;4.712;2022-07-29T10:42:48;9.45;;;3.22;;
46551;SDS011;32278;51.810;4.712;2022-07-29T10:45:16;5.85;;;2.63;;
46551;SDS011;32278;51.810;4.712;2022-07-29T10:47:42;5.03;;;2.25;;
46551;SDS011;32278;51.810;4.712;2022-07-29T10:50:08;6.63;;;1.73;;
46551;SDS011;32278;51.810;4.712;2022-07-29T10:58:15;7.35;;;1.92;;
46551;SDS011;32278;51.810;4.712;2022-07-29T11:00:42;7.00;;;1.73;;
46551;SDS011;32278;51.810;4.712;2022-07-29T11:03:08;6.40;;;1.60;;
46551;SDS011;32278;51.810;4.712;2022-07-29T11:05:53;4.10;;;1.50;;
46551;SDS011;32278;51.810;4.712;2022-07-29T11:08:20;6.50;;;2.30;;
46551;SDS011;32278;51.810;4.712;2022-07-29T11:10:48;7.20;;;2.38;;
46551;SDS011;32278;51.810;4.712;2022-07-29T11:16:08;5.03;;;1.80;;
46551;SDS011;32278;51.810;4.712;2022-07-29T11:18:34;8.52;;;1.83;;
46551;SDS011;32278;51.810;4.712;2022-07-29T11:20:59;4.45;;;1.65;;
46551;SDS011;32278;51.810;4.712;2022-07-29T11:23:29;8.07;;;2.20;;
46551;SDS011;32278;51.810;4.712;2022-07-29T11:28:50;5.13;;;1.88;;
46551;SDS011;32278;51.810;4.712;2022-07-29T11:31:34;3.80;;;1.80;;
46551;SDS011;32278;51.810;4.712;2022-07-29T11:34:21;8.85;;;2.10;;
46551;SDS011;32278;51.810;4.712;2022-07-29T11:39:38;6.88;;;2.17;;
46551;SDS011;32278;51.810;4.712;2022-07-29T11:44:56;5.43;;;1.50;;
46551;SDS011;32278;51.810;4.712;2022-07-29T11:47:23;8.15;;;1.80;;
46551;SDS011;32278;51.810;4.712;2022-07-29T11:49:54;5.40;;;1.60;;
46551;SDS011;32278;51.810;4.712;2022-07-29T11:52:21;8.60;;;1.98;;
46551;SDS011;32278;51.810;4.712;2022-07-29T11:54:48;8.00;;;1.70;;
46551;SDS011;32278;51.810;4.712;2022-07-29T11:57:16;3.53;;;1.52;;
46551;SDS011;32278;51.810;4.712;2022-07-29T11:59:43;7.72;;;1.77;;
46551;SDS011;32278;51.810;4.712;2022-07-29T12:02:10;2.85;;;1.48;;
46551;SDS011;32278;51.810;4.712;2022-07-29T12:04:53;5.75;;;1.70;;
46551;SDS011;32278;51.810;4.712;2022-07-29T12:07:30;4.63;;;1.85;;
46551;SDS011;32278;51.810;4.712;2022-07-29T12:09:56;2.97;;;1.98;;
46551;SDS011;32278;51.810;4.712;2022-07-29T12:12:22;6.50;;;2.42;;
46551;SDS011;32278;51.810;4.712;2022-07-29T12:14:48;6.50;;;1.80;;
46551;SDS011;32278;51.810;4.712;2022-07-29T12:19:53;2.90;;;1.77;;
46551;SDS011;32278;51.810;4.712;2022-07-29T12:25:02;7.05;;;2.05;;
46551;SDS011;32278;51.810;4.712;2022-07-29T12:27:47;8.80;;;2.00;;
46551;SDS011;32278;51.810;4.712;2022-07-29T12:30:22;9.30;;;1.70;;
46551;SDS011;32278;51.810;4.712;2022-07-29T12:32:48;6.57;;;1.70;;
46551;SDS011;32278;51.810;4.712;2022-07-29T12:35:14;7.03;;;2.03;;
46551;SDS011;32278;51.810;4.712;2022-07-29T12:37:42;6.43;;;2.33;;
46551;SDS011;32278;51.810;4.712;2022-07-29T12:40:09;6.05;;;1.48;;
46551;SDS011;32278;51.810;4.712;2022-07-29T12:42:37;4.38;;;2.20;;
46551;SDS011;32278;51.810;4.712;2022-07-29T12:45:04;4.50;;;2.20;;
46551;SDS011;32278;51.810;4.712;2022-07-29T12:47:30;5.78;;;2.42;;
46551;SDS011;32278;51.810;4.712;2022-07-29T12:50:09;6.00;;;2.00;;
46551;SDS011;32278;51.810;4.712;2022-07-29T12:52:36;5.95;;;2.67;;
46551;SDS011;32278;51.810;4.712;2022-07-29T12:55:02;6.13;;;1.80;;
46551;SDS011;32278;51.810;4.712;2022-07-29T12:57:29;5.57;;;1.88;;
46551;SDS011;32278;51.810;4.712;2022-07-29T13:00:06;6.80;;;1.92;;
46551;SDS011;32278;51.810;4.712;2022-07-29T13:02:34;6.00;;;2.30;;
46551;SDS011;32278;51.810;4.712;2022-07-29T13:05:01;7.22;;;2.28;;
46551;SDS011;32278;51.810;4.712;2022-07-29T13:07:28;4.07;;;2.08;;
46551;SDS011;32278;51.810;4.712;2022-07-29T13:09:58;5.32;;;1.92;;
46551;SDS011;32278;51.810;4.712;2022-07-29T13:12:38;6.90;;;1.83;;
46551;SDS011;32278;51.810;4.712;2022-07-29T13:15:13;4.88;;;1.85;;
46551;SDS011;32278;51.810;4.712;2022-07-29T13:17:40;10.32;;;2.28;;
46551;SDS011;32278;51.810;4.712;2022-07-29T13:20:09;6.03;;;2.33;;
46551;SDS011;32278;51.810;4.712;2022-07-29T13:22:41;5.78;;;2.50;;
46551;SDS011;32278;51.810;4.712;2022-07-29T13:25:07;5.40;;;2.30;;
46551;SDS011;32278;51.810;4.712;2022-07-29T13:27:35;5.00;;;2.40;;
46551;SDS011;32278;51.810;4.712;2022-07-29T13:30:04;8.25;;;2.58;;
46551;SDS011;32278;51.810;4.712;2022-07-29T13:32:31;5.55;;;2.88;;
46551;SDS011;32278;51.810;4.712;2022-07-29T13:35:02;9.00;;;2.53;;
46551;SDS011;32278;51.810;4.712;2022-07-29T13:37:30;6.63;;;2.58;;
46551;SDS011;32278;51.810;4.712;2022-07-29T13:39:57;3.88;;;2.08;;
46551;SDS011;32278;51.810;4.712;2022-07-29T13:42:24;5.88;;;2.15;;
46551;SDS011;32278;51.810;4.712;2022-07-29T13:44:51;7.30;;;2.30;;
46551;SDS011;32278;51.810;4.712;2022-07-29T13:47:20;14.35;;;3.40;;
46551;SDS011;32278;51.810;4.712;2022-07-29T13:49:46;7.47;;;3.63;;
46551;SDS011;32278;51.810;4.712;2022-07-29T13:52:12;7.25;;;2.97;;
46551;SDS011;32278;51.810;4.712;2022-07-29T13:54:38;7.32;;;2.80;;
46551;SDS011;32278;51.810;4.712;2022-07-29T13:57:04;10.38;;;2.33;;
46551;SDS011;32278;51.810;4.712;2022-07-29T13:59:30;4.18;;;2.20;;
46551;SDS011;32278;51.810;4.712;2022-07-29T14:01:55;11.02;;;2.38;;
46551;SDS011;32278;51.810;4.712;2022-07-29T14:04:21;7.10;;;3.13;;
46551;SDS011;32278;51.810;4.712;2022-07-29T14:06:48;6.95;;;3.10;;
46551;SDS011;32278;51.810;4.712;2022-07-29T14:09:14;6.72;;;2.30;;
46551;SDS011;32278;51.810;4.712;2022-07-29T14:11:39;6.63;;;2.85;;
46551;SDS011;32278;51.810;4.712;2022-07-29T14:14:05;5.60;;;2.35;;
46551;SDS011;32278;51.810;4.712;2022-07-29T14:16:31;8.18;;;2.45;;
46551;SDS011;32278;51.810;4.712;2022-07-29T14:18:57;4.03;;;1.95;;
46551;SDS011;32278;51.810;4.712;2022-07-29T14:21:23;10.23;;;2.10;;
46551;SDS011;32278;51.810;4.712;2022-07-29T14:23:49;7.70;;;1.80;;
46551;SDS011;32278;51.810;4.712;2022-07-29T14:26:14;8.40;;;3.10;;
46551;SDS011;32278;51.810;4.712;2022-07-29T14:28:40;3.95;;;2.25;;
46551;SDS011;32278;51.810;4.712;2022-07-29T14:31:05;4.55;;;2.30;;
46551;SDS011;32278;51.810;4.712;2022-07-29T14:33:31;2.95;;;2.25;;
46551;SDS011;32278;51.810;4.712;2022-07-29T14:35:57;8.18;;;2.10;;
46551;SDS011;32278;51.810;4.712;2022-07-29T14:38:22;4.78;;;2.25;;
46551;SDS011;32278;51.810;4.712;2022-07-29T14:40:48;7.28;;;2.47;;
46551;SDS011;32278;51.810;4.712;2022-07-29T14:43:14;7.80;;;2.05;;
46551;SDS011;32278;51.810;4.712;2022-07-29T14:45:39;6.15;;;2.58;;
46551;SDS011;32278;51.810;4.712;2022-07-29T14:48:05;9.70;;;2.83;;
46551;SDS011;32278;51.810;4.712;2022-07-29T14:50:31;7.95;;;2.65;;
46551;SDS011;32278;51.810;4.712;2022-07-29T14:52:57;8.02;;;2.20;;
46551;SDS011;32278;51.810;4.712;2022-07-29T14:55:23;12.50;;;2.83;;
46551;SDS011;32278;51.810;4.712;2022-07-29T14:57:49;9.80;;;2.45;;
46551;SDS011;32278;51.810;4.712;2022-07-29T15:00:15;6.20;;;2.40;;
46551;SDS011;32278;51.810;4.712;2022-07-29T15:06:05;3.20;;;2.33;;
46551;SDS011;32278;51.810;4.712;2022-07-29T15:08:31;6.85;;;2.47;;
46551;SDS011;32278;51.810;4.712;2022-07-29T15:10:57;9.38;;;2.90;;
46551;SDS011;32278;51.810;4.712;2022-07-29T15:13:24;4.85;;;2.03;;
46551;SDS011;32278;51.810;4.712;2022-07-29T15:15:50;5.65;;;2.60;;
46551;SDS011;32278;51.810;4.712;2022-07-29T15:18:16;6.32;;;2.67;;
46551;SDS011;32278;51.810;4.712;2022-07-29T15:20:42;9.20;;;2.78;;
46551;SDS011;32278;51.810;4.712;2022-07-29T15:23:09;8.13;;;2.88;;
46551;SDS011;32278;51.810;4.712;2022-07-29T15:25:37;5.93;;;2.40;;
46551;SDS011;32278;51.810;4.712;2022-07-29T15:28:04;6.55;;;2.72;;
46551;SDS011;32278;51.810;4.712;2022-07-29T15:30:32;16.00;;;3.03;;
46551;SDS011;32278;51.810;4.712;2022-07-29T15:32:58;6.88;;;2.70;;
46551;SDS011;32278;51.810;4.712;2022-07-29T15:35:24;5.40;;;2.30;;
46551;SDS011;32278;51.810;4.712;2022-07-29T15:37:50;5.07;;;2.00;;
46551;SDS011;32278;51.810;4.712;2022-07-29T15:40:15;5.80;;;2.10;;
46551;SDS011;32278;51.810;4.712;2022-07-29T15:42:41;3.85;;;2.15;;